sensor_id;sensor_type;location;lat;lon;timestamp;P1;durP1;ratioP1;P2;durP2;ratioP2
9062;SDS011;4567;42.118;24.746;2022-11-20T00:00:03;46.93;;;33.27;;
9062;SDS011;4567;42.118;24.746;2022-11-20T00:02:31;46.50;;;33.70;;
9062;SDS011;4567;42.118;24.746;2022-11-20T00:04:58;45.10;;;32.20;;
9062;SDS011;4567;42.118;24.746;2022-11-20T00:07:24;42.23;;;31.97;;
9062;SDS011;4567;42.118;24.746;2022-11-20T00:09:51;44.97;;;32.43;;
9062;SDS011;4567;42.118;24.746;2022-11-20T00:12:18;47.77;;;33.20;;
9062;SDS011;4567;42.118;24.746;2022-11-20T00:14:44;46.53;;;33.13;;
9062;SDS011;4567;42.118;24.746;2022-11-20T00:17:11;47.07;;;33.57;;
9062;SDS011;4567;42.118;24.746;2022-11-20T00:19:39;50.13;;;34.33;;
9062;SDS011;4567;42.118;24.746;2022-11-20T00:22:06;48.77;;;33.47;;
9062;SDS011;4567;42.118;24.746;2022-11-20T00:24:32;48.03;;;34.53;;
9062;SDS011;4567;42.118;24.746;2022-11-20T00:26:59;52.60;;;34.60;;
9062;SDS011;4567;42.118;24.746;2022-11-20T00:29:25;47.37;;;33.63;;
9062;SDS011;4567;42.118;24.746;2022-11-20T00:31:52;48.60;;;34.47;;
9062;SDS011;4567;42.118;24.746;2022-11-20T00:34:19;50.23;;;34.13;;
9062;SDS011;4567;42.118;24.746;2022-11-20T00:36:47;49.40;;;34.03;;
9062;SDS011;4567;42.118;24.746;2022-11-20T00:39:13;51.17;;;35.23;;
9062;SDS011;4567;42.118;24.746;2022-11-20T00:41:40;48.53;;;35.67;;
9062;SDS011;4567;42.118;24.746;2022-11-20T00:44:07;46.37;;;35.37;;
9062;SDS011;4567;42.118;24.746;2022-11-20T00:46:33;51.07;;;35.47;;
9062;SDS011;4567;42.118;24.746;2022-11-20T00:49:00;47.50;;;35.13;;
9062;SDS011;4567;42.118;24.746;2022-11-20T00:51:27;54.17;;;35.93;;
9062;SDS011;4567;42.118;24.746;2022-11-20T00:53:56;52.60;;;36.27;;
9062;SDS011;4567;42.118;24.746;2022-11-20T00:56:23;51.67;;;35.07;;
9062;SDS011;4567;42.118;24.746;2022-11-20T00:58:49;51.93;;;34.63;;
9062;SDS011;4567;42.118;24.746;2022-11-20T01:01:17;46.80;;;33.70;;
9062;SDS011;4567;42.118;24.746;2022-11-20T01:03:45;50.60;;;34.73;;
9062;SDS011;4567;42.118;24.746;2022-11-20T01:06:13;48.00;;;33.37;;
9062;SDS011;4567;42.118;24.746;2022-11-20T01:08:42;49.47;;;33.70;;
9062;SDS011;4567;42.118;24.746;2022-11-20T01:11:12;46.03;;;32.67;;
9062;SDS011;4567;42.118;24.746;2022-11-20T01:13:41;45.03;;;32.57;;
9062;SDS011;4567;42.118;24.746;2022-11-20T01:16:09;52.60;;;33.90;;
9062;SDS011;4567;42.118;24.746;2022-11-20T01:18:38;42.53;;;32.43;;
9062;SDS011;4567;42.118;24.746;2022-11-20T01:21:07;46.33;;;33.03;;
9062;SDS011;4567;42.118;24.746;2022-11-20T01:23:36;49.60;;;34.33;;
9062;SDS011;4567;42.118;24.746;2022-11-20T01:26:04;47.23;;;34.43;;
9062;SDS011;4567;42.118;24.746;2022-11-20T01:28:34;46.47;;;33.87;;
9062;SDS011;4567;42.118;24.746;2022-11-20T01:31:01;46.00;;;34.27;;
9062;SDS011;4567;42.118;24.746;2022-11-20T01:33:36;47.97;;;33.30;;
9062;SDS011;4567;42.118;24.746;2022-11-20T01:36:03;47.67;;;33.07;;
9062;SDS011;4567;42.118;24.746;2022-11-20T01:38:30;42.60;;;32.13;;
9062;SDS011;4567;42.118;24.746;2022-11-20T01:40:57;47.30;;;34.23;;
9062;SDS011;4567;42.118;24.746;2022-11-20T01:43:24;48.70;;;32.80;;
9062;SDS011;4567;42.118;24.746;2022-11-20T01:46:02;45.63;;;32.47;;
9062;SDS011;4567;42.118;24.746;2022-11-20T01:48:40;50.30;;;33.53;;
9062;SDS011;4567;42.118;24.746;2022-11-20T01:51:15;47.73;;;33.07;;
9062;SDS011;4567;42.118;24.746;2022-11-20T01:53:46;48.20;;;33.63;;
9062;SDS011;4567;42.118;24.746;2022-11-20T01:56:14;48.97;;;32.67;;
9062;SDS011;4567;42.118;24.746;2022-11-20T01:58:42;44.23;;;32.60;;
9062;SDS011;4567;42.118;24.746;2022-11-20T02:01:15;41.30;;;32.40;;
9062;SDS011;4567;42.118;24.746;2022-11-20T02:03:41;45.23;;;33.63;;
9062;SDS011;4567;42.118;24.746;2022-11-20T02:06:11;46.33;;;34.07;;
9062;SDS011;4567;42.118;24.746;2022-11-20T02:08:43;50.33;;;33.37;;
9062;SDS011;4567;42.118;24.746;2022-11-20T02:11:10;47.23;;;32.43;;
9062;SDS011;4567;42.118;24.746;2022-11-20T02:13:37;47.23;;;33.60;;
9062;SDS011;4567;42.118;24.746;2022-11-20T02:16:18;45.37;;;33.07;;
9062;SDS011;4567;42.118;24.746;2022-11-20T02:18:48;43.23;;;32.57;;
9062;SDS011;4567;42.118;24.746;2022-11-20T02:21:24;48.03;;;32.40;;
9062;SDS011;4567;42.118;24.746;2022-11-20T02:24:07;45.30;;;32.40;;
9062;SDS011;4567;42.118;24.746;2022-11-20T02:26:38;44.20;;;32.60;;
9062;SDS011;4567;42.118;24.746;2022-11-20T02:29:09;46.27;;;32.00;;
9062;SDS011;4567;42.118;24.746;2022-11-20T02:31:36;52.33;;;32.33;;
9062;SDS011;4567;42.118;24.746;2022-11-20T02:34:04;47.43;;;31.20;;
9062;SDS011;4567;42.118;24.746;2022-11-20T02:36:31;43.90;;;30.40;;
9062;SDS011;4567;42.118;24.746;2022-11-20T02:39:01;44.77;;;30.27;;
9062;SDS011;4567;42.118;24.746;2022-11-20T02:41:33;43.60;;;29.83;;
9062;SDS011;4567;42.118;24.746;2022-11-20T02:44:01;38.83;;;30.00;;
9062;SDS011;4567;42.118;24.746;2022-11-20T02:46:29;41.37;;;29.87;;
9062;SDS011;4567;42.118;24.746;2022-11-20T02:48:56;41.87;;;30.60;;
9062;SDS011;4567;42.118;24.746;2022-11-20T02:51:23;40.33;;;29.03;;
9062;SDS011;4567;42.118;24.746;2022-11-20T02:53:50;41.87;;;28.97;;
9062;SDS011;4567;42.118;24.746;2022-11-20T02:56:16;42.33;;;30.30;;
9062;SDS011;4567;42.118;24.746;2022-11-20T02:58:44;41.53;;;29.50;;
9062;SDS011;4567;42.118;24.746;2022-11-20T03:01:11;42.43;;;30.67;;
9062;SDS011;4567;42.118;24.746;2022-11-20T03:03:38;44.97;;;31.60;;
9062;SDS011;4567;42.118;24.746;2022-11-20T03:06:05;43.90;;;31.10;;
9062;SDS011;4567;42.118;24.746;2022-11-20T03:08:32;43.43;;;30.00;;
9062;SDS011;4567;42.118;24.746;2022-11-20T03:11:01;46.23;;;30.87;;
9062;SDS011;4567;42.118;24.746;2022-11-20T03:13:29;38.37;;;29.17;;
9062;SDS011;4567;42.118;24.746;2022-11-20T03:15:57;42.97;;;30.30;;
9062;SDS011;4567;42.118;24.746;2022-11-20T03:18:24;45.13;;;30.13;;
9062;SDS011;4567;42.118;24.746;2022-11-20T03:20:56;41.53;;;29.30;;
9062;SDS011;4567;42.118;24.746;2022-11-20T03:23:23;39.40;;;30.20;;
9062;SDS011;4567;42.118;24.746;2022-11-20T03:25:50;40.00;;;28.60;;
9062;SDS011;4567;42.118;24.746;2022-11-20T03:28:16;41.50;;;27.50;;
9062;SDS011;4567;42.118;24.746;2022-11-20T03:30:43;40.50;;;28.13;;
9062;SDS011;4567;42.118;24.746;2022-11-20T03:33:11;40.73;;;28.30;;
9062;SDS011;4567;42.118;24.746;2022-11-20T03:35:38;41.07;;;27.57;;
9062;SDS011;4567;42.118;24.746;2022-11-20T03:38:04;46.63;;;28.30;;
9062;SDS011;4567;42.118;24.746;2022-11-20T03:40:31;40.47;;;27.73;;
9062;SDS011;4567;42.118;24.746;2022-11-20T03:42:59;44.13;;;27.20;;
9062;SDS011;4567;42.118;24.746;2022-11-20T03:45:26;40.87;;;25.77;;
9062;SDS011;4567;42.118;24.746;2022-11-20T03:47:53;42.30;;;27.30;;
9062;SDS011;4567;42.118;24.746;2022-11-20T03:50:21;40.07;;;24.33;;
9062;SDS011;4567;42.118;24.746;2022-11-20T03:52:47;36.40;;;26.13;;
9062;SDS011;4567;42.118;24.746;2022-11-20T03:55:14;41.10;;;25.53;;
9062;SDS011;4567;42.118;24.746;2022-11-20T03:57:41;32.43;;;21.87;;
9062;SDS011;4567;42.118;24.746;2022-11-20T04:00:08;35.63;;;23.50;;
9062;SDS011;4567;42.118;24.746;2022-11-20T04:02:35;37.03;;;23.17;;
9062;SDS011;4567;42.118;24.746;2022-11-20T04:05:02;33.77;;;22.07;;
9062;SDS011;4567;42.118;24.746;2022-11-20T04:07:30;35.73;;;21.07;;
9062;SDS011;4567;42.118;24.746;2022-11-20T04:09:57;30.40;;;21.67;;
9062;SDS011;4567;42.118;24.746;2022-11-20T04:12:24;34.10;;;20.83;;
9062;SDS011;4567;42.118;24.746;2022-11-20T04:14:50;29.27;;;20.43;;
9062;SDS011;4567;42.118;24.746;2022-11-20T04:17:17;33.13;;;21.03;;
9062;SDS011;4567;42.118;24.746;2022-11-20T04:19:44;30.17;;;20.83;;
9062;SDS011;4567;42.118;24.746;2022-11-20T04:22:10;37.33;;;21.97;;
9062;SDS011;4567;42.118;24.746;2022-11-20T04:24:38;34.00;;;21.80;;
9062;SDS011;4567;42.118;24.746;2022-11-20T04:27:05;32.40;;;20.40;;
9062;SDS011;4567;42.118;24.746;2022-11-20T04:29:32;28.73;;;20.70;;
9062;SDS011;4567;42.118;24.746;2022-11-20T04:31:58;35.57;;;21.70;;
9062;SDS011;4567;42.118;24.746;2022-11-20T04:34:25;27.07;;;19.40;;
9062;SDS011;4567;42.118;24.746;2022-11-20T04:36:52;28.60;;;19.73;;
9062;SDS011;4567;42.118;24.746;2022-11-20T04:39:18;27.40;;;19.50;;
9062;SDS011;4567;42.118;24.746;2022-11-20T04:41:46;30.53;;;18.37;;
9062;SDS011;4567;42.118;24.746;2022-11-20T04:44:13;29.43;;;17.47;;
9062;SDS011;4567;42.118;24.746;2022-11-20T04:46:40;26.70;;;15.80;;
9062;SDS011;4567;42.118;24.746;2022-11-20T04:49:08;22.23;;;15.27;;
9062;SDS011;4567;42.118;24.746;2022-11-20T04:51:35;27.87;;;17.67;;
9062;SDS011;4567;42.118;24.746;2022-11-20T04:54:01;29.90;;;17.77;;
9062;SDS011;4567;42.118;24.746;2022-11-20T04:56:28;24.87;;;16.73;;
9062;SDS011;4567;42.118;24.746;2022-11-20T04:58:59;26.90;;;15.33;;
9062;SDS011;4567;42.118;24.746;2022-11-20T05:01:26;24.83;;;14.43;;
9062;SDS011;4567;42.118;24.746;2022-11-20T05:03:53;24.47;;;14.13;;
9062;SDS011;4567;42.118;24.746;2022-11-20T05:06:20;26.40;;;13.83;;
9062;SDS011;4567;42.118;24.746;2022-11-20T05:08:47;21.20;;;12.13;;
9062;SDS011;4567;42.118;24.746;2022-11-20T05:11:14;19.70;;;12.83;;
9062;SDS011;4567;42.118;24.746;2022-11-20T05:13:43;23.33;;;12.90;;
9062;SDS011;4567;42.118;24.746;2022-11-20T05:16:11;28.70;;;12.77;;
9062;SDS011;4567;42.118;24.746;2022-11-20T05:18:39;23.63;;;13.33;;
9062;SDS011;4567;42.118;24.746;2022-11-20T05:21:07;18.07;;;10.83;;
9062;SDS011;4567;42.118;24.746;2022-11-20T05:23:35;23.43;;;12.50;;
9062;SDS011;4567;42.118;24.746;2022-11-20T05:26:02;25.70;;;13.10;;
9062;SDS011;4567;42.118;24.746;2022-11-20T05:28:30;26.40;;;12.27;;
9062;SDS011;4567;42.118;24.746;2022-11-20T05:31:03;20.20;;;12.07;;
9062;SDS011;4567;42.118;24.746;2022-11-20T05:33:32;22.00;;;12.70;;
9062;SDS011;4567;42.118;24.746;2022-11-20T05:35:59;19.67;;;12.97;;
9062;SDS011;4567;42.118;24.746;2022-11-20T05:38:26;22.67;;;12.60;;
9062;SDS011;4567;42.118;24.746;2022-11-20T05:40:53;22.57;;;12.40;;
9062;SDS011;4567;42.118;24.746;2022-11-20T05:43:19;21.83;;;13.00;;
9062;SDS011;4567;42.118;24.746;2022-11-20T05:45:51;24.23;;;12.23;;
9062;SDS011;4567;42.118;24.746;2022-11-20T05:48:18;22.00;;;12.70;;
9062;SDS011;4567;42.118;24.746;2022-11-20T05:50:46;18.23;;;12.07;;
9062;SDS011;4567;42.118;24.746;2022-11-20T05:53:13;19.10;;;13.50;;
9062;SDS011;4567;42.118;24.746;2022-11-20T05:55:40;22.80;;;13.07;;
9062;SDS011;4567;42.118;24.746;2022-11-20T05:58:06;23.63;;;13.40;;
9062;SDS011;4567;42.118;24.746;2022-11-20T06:00:33;22.80;;;13.87;;
9062;SDS011;4567;42.118;24.746;2022-11-20T06:03:00;20.47;;;14.07;;
9062;SDS011;4567;42.118;24.746;2022-11-20T06:05:27;25.47;;;14.07;;
9062;SDS011;4567;42.118;24.746;2022-11-20T06:07:55;38.00;;;19.90;;
9062;SDS011;4567;42.118;24.746;2022-11-20T06:10:21;28.30;;;16.17;;
9062;SDS011;4567;42.118;24.746;2022-11-20T06:12:48;25.17;;;15.00;;
9062;SDS011;4567;42.118;24.746;2022-11-20T06:15:15;20.40;;;10.40;;
9062;SDS011;4567;42.118;24.746;2022-11-20T06:17:41;20.90;;;13.80;;
9062;SDS011;4567;42.118;24.746;2022-11-20T06:20:08;18.10;;;10.57;;
9062;SDS011;4567;42.118;24.746;2022-11-20T06:22:36;21.07;;;12.70;;
9062;SDS011;4567;42.118;24.746;2022-11-20T06:25:04;24.93;;;12.87;;
9062;SDS011;4567;42.118;24.746;2022-11-20T06:27:31;19.73;;;12.00;;
9062;SDS011;4567;42.118;24.746;2022-11-20T06:29:57;22.93;;;12.63;;
9062;SDS011;4567;42.118;24.746;2022-11-20T06:32:24;20.63;;;12.40;;
9062;SDS011;4567;42.118;24.746;2022-11-20T06:34:51;23.87;;;12.77;;
9062;SDS011;4567;42.118;24.746;2022-11-20T06:37:18;21.37;;;12.63;;
9062;SDS011;4567;42.118;24.746;2022-11-20T06:39:45;22.40;;;12.50;;
9062;SDS011;4567;42.118;24.746;2022-11-20T06:42:13;21.47;;;11.70;;
9062;SDS011;4567;42.118;24.746;2022-11-20T06:44:40;19.93;;;10.77;;
9062;SDS011;4567;42.118;24.746;2022-11-20T06:47:06;19.07;;;11.60;;
9062;SDS011;4567;42.118;24.746;2022-11-20T06:49:33;22.83;;;10.67;;
9062;SDS011;4567;42.118;24.746;2022-11-20T06:52:02;21.93;;;10.07;;
9062;SDS011;4567;42.118;24.746;2022-11-20T06:54:29;18.03;;;9.00;;
9062;SDS011;4567;42.118;24.746;2022-11-20T06:56:55;14.10;;;9.50;;
9062;SDS011;4567;42.118;24.746;2022-11-20T06:59:23;15.37;;;9.00;;
9062;SDS011;4567;42.118;24.746;2022-11-20T07:01:50;18.27;;;10.80;;
9062;SDS011;4567;42.118;24.746;2022-11-20T07:04:16;20.67;;;11.43;;
9062;SDS011;4567;42.118;24.746;2022-11-20T07:06:43;19.50;;;10.63;;
9062;SDS011;4567;42.118;24.746;2022-11-20T07:09:10;19.43;;;10.90;;
9062;SDS011;4567;42.118;24.746;2022-11-20T07:11:36;24.93;;;11.27;;
9062;SDS011;4567;42.118;24.746;2022-11-20T07:14:03;21.33;;;11.47;;
9062;SDS011;4567;42.118;24.746;2022-11-20T07:16:31;25.43;;;11.90;;
9062;SDS011;4567;42.118;24.746;2022-11-20T07:18:58;25.03;;;11.90;;
9062;SDS011;4567;42.118;24.746;2022-11-20T07:21:25;21.77;;;10.80;;
9062;SDS011;4567;42.118;24.746;2022-11-20T07:23:51;19.10;;;9.60;;
9062;SDS011;4567;42.118;24.746;2022-11-20T07:26:18;18.60;;;9.73;;
9062;SDS011;4567;42.118;24.746;2022-11-20T07:28:45;19.00;;;10.03;;
9062;SDS011;4567;42.118;24.746;2022-11-20T07:31:12;17.10;;;9.57;;
9062;SDS011;4567;42.118;24.746;2022-11-20T07:33:40;13.53;;;9.10;;
9062;SDS011;4567;42.118;24.746;2022-11-20T07:36:07;14.87;;;9.87;;
9062;SDS011;4567;42.118;24.746;2022-11-20T07:38:34;14.23;;;9.33;;
9062;SDS011;4567;42.118;24.746;2022-11-20T07:41:00;19.47;;;10.00;;
9062;SDS011;4567;42.118;24.746;2022-11-20T07:43:27;21.17;;;10.73;;
9062;SDS011;4567;42.118;24.746;2022-11-20T07:45:54;19.77;;;10.13;;
9062;SDS011;4567;42.118;24.746;2022-11-20T07:48:21;20.23;;;10.63;;
9062;SDS011;4567;42.118;24.746;2022-11-20T07:50:49;22.77;;;10.23;;
9062;SDS011;4567;42.118;24.746;2022-11-20T07:53:19;19.33;;;9.97;;
9062;SDS011;4567;42.118;24.746;2022-11-20T07:55:46;18.10;;;9.70;;
9062;SDS011;4567;42.118;24.746;2022-11-20T07:58:13;20.90;;;10.57;;
9062;SDS011;4567;42.118;24.746;2022-11-20T08:00:40;25.43;;;11.33;;
9062;SDS011;4567;42.118;24.746;2022-11-20T08:03:07;20.70;;;11.43;;
9062;SDS011;4567;42.118;24.746;2022-11-20T08:05:33;21.60;;;11.60;;
9062;SDS011;4567;42.118;24.746;2022-11-20T08:08:01;18.20;;;10.97;;
9062;SDS011;4567;42.118;24.746;2022-11-20T08:10:28;16.30;;;10.27;;
9062;SDS011;4567;42.118;24.746;2022-11-20T08:12:55;19.00;;;10.80;;
9062;SDS011;4567;42.118;24.746;2022-11-20T08:15:39;21.87;;;11.03;;
9062;SDS011;4567;42.118;24.746;2022-11-20T08:18:07;24.30;;;11.17;;
9062;SDS011;4567;42.118;24.746;2022-11-20T08:20:35;22.43;;;10.93;;
9062;SDS011;4567;42.118;24.746;2022-11-20T08:23:04;24.00;;;10.60;;
9062;SDS011;4567;42.118;24.746;2022-11-20T08:25:32;18.83;;;10.30;;
9062;SDS011;4567;42.118;24.746;2022-11-20T08:28:00;25.77;;;11.43;;
9062;SDS011;4567;42.118;24.746;2022-11-20T08:30:28;23.87;;;11.43;;
9062;SDS011;4567;42.118;24.746;2022-11-20T08:32:59;19.67;;;10.70;;
9062;SDS011;4567;42.118;24.746;2022-11-20T08:35:27;21.80;;;10.33;;
9062;SDS011;4567;42.118;24.746;2022-11-20T08:37:54;23.30;;;10.37;;
9062;SDS011;4567;42.118;24.746;2022-11-20T08:40:22;28.63;;;10.73;;
9062;SDS011;4567;42.118;24.746;2022-11-20T08:42:49;19.53;;;10.60;;
9062;SDS011;4567;42.118;24.746;2022-11-20T08:45:17;17.67;;;9.97;;
9062;SDS011;4567;42.118;24.746;2022-11-20T08:47:45;14.33;;;9.57;;
9062;SDS011;4567;42.118;24.746;2022-11-20T08:50:13;21.93;;;10.47;;
9062;SDS011;4567;42.118;24.746;2022-11-20T08:52:40;18.57;;;10.47;;
9062;SDS011;4567;42.118;24.746;2022-11-20T08:55:08;17.63;;;9.40;;
9062;SDS011;4567;42.118;24.746;2022-11-20T08:57:36;15.00;;;9.10;;
9062;SDS011;4567;42.118;24.746;2022-11-20T09:00:04;14.37;;;7.77;;
9062;SDS011;4567;42.118;24.746;2022-11-20T09:02:33;16.70;;;7.50;;
9062;SDS011;4567;42.118;24.746;2022-11-20T09:05:00;13.33;;;6.80;;
9062;SDS011;4567;42.118;24.746;2022-11-20T09:07:28;14.33;;;6.73;;
9062;SDS011;4567;42.118;24.746;2022-11-20T09:09:54;18.40;;;7.53;;
9062;SDS011;4567;42.118;24.746;2022-11-20T09:12:21;18.30;;;7.30;;
9062;SDS011;4567;42.118;24.746;2022-11-20T09:14:49;13.97;;;6.73;;
9062;SDS011;4567;42.118;24.746;2022-11-20T09:17:16;13.73;;;6.33;;
9062;SDS011;4567;42.118;24.746;2022-11-20T09:19:42;14.93;;;6.93;;
9062;SDS011;4567;42.118;24.746;2022-11-20T09:22:09;18.27;;;7.00;;
9062;SDS011;4567;42.118;24.746;2022-11-20T09:24:35;20.48;;;7.60;;
9062;SDS011;4567;42.118;24.746;2022-11-20T09:27:03;16.13;;;7.63;;
9062;SDS011;4567;42.118;24.746;2022-11-20T09:29:30;15.40;;;6.78;;
9062;SDS011;4567;42.118;24.746;2022-11-20T09:31:58;9.60;;;6.75;;
9062;SDS011;4567;42.118;24.746;2022-11-20T09:34:25;14.25;;;7.90;;
9062;SDS011;4567;42.118;24.746;2022-11-20T09:36:52;14.50;;;7.60;;
9062;SDS011;4567;42.118;24.746;2022-11-20T09:39:19;20.73;;;8.50;;
9062;SDS011;4567;42.118;24.746;2022-11-20T09:41:50;18.40;;;9.90;;
9062;SDS011;4567;42.118;24.746;2022-11-20T09:44:40;13.15;;;8.65;;
9062;SDS011;4567;42.118;24.746;2022-11-20T09:47:22;22.58;;;8.05;;
9062;SDS011;4567;42.118;24.746;2022-11-20T09:50:01;18.08;;;8.02;;
9062;SDS011;4567;42.118;24.746;2022-11-20T09:52:40;19.10;;;7.88;;
9062;SDS011;4567;42.118;24.746;2022-11-20T09:55:20;12.73;;;6.63;;
9062;SDS011;4567;42.118;24.746;2022-11-20T09:57:48;17.27;;;6.90;;
9062;SDS011;4567;42.118;24.746;2022-11-20T10:00:18;10.75;;;5.60;;
9062;SDS011;4567;42.118;24.746;2022-11-20T10:02:48;12.52;;;5.32;;
9062;SDS011;4567;42.118;24.746;2022-11-20T10:05:21;11.32;;;5.05;;
9062;SDS011;4567;42.118;24.746;2022-11-20T10:07:52;8.73;;;4.55;;
9062;SDS011;4567;42.118;24.746;2022-11-20T10:10:28;8.63;;;4.70;;
9062;SDS011;4567;42.118;24.746;2022-11-20T10:13:03;9.18;;;4.20;;
9062;SDS011;4567;42.118;24.746;2022-11-20T10:15:57;7.97;;;4.20;;
9062;SDS011;4567;42.118;24.746;2022-11-20T10:18:39;6.55;;;4.40;;
9062;SDS011;4567;42.118;24.746;2022-11-20T10:21:17;10.55;;;4.35;;
9062;SDS011;4567;42.118;24.746;2022-11-20T10:27:09;11.02;;;4.43;;
9062;SDS011;4567;42.118;24.746;2022-11-20T10:29:56;8.25;;;4.35;;
9062;SDS011;4567;42.118;24.746;2022-11-20T10:32:28;14.38;;;4.78;;
9062;SDS011;4567;42.118;24.746;2022-11-20T10:35:03;9.13;;;4.13;;
9062;SDS011;4567;42.118;24.746;2022-11-20T10:37:34;7.25;;;4.53;;
9062;SDS011;4567;42.118;24.746;2022-11-20T10:40:05;7.25;;;4.40;;
9062;SDS011;4567;42.118;24.746;2022-11-20T10:42:45;13.75;;;4.85;;
9062;SDS011;4567;42.118;24.746;2022-11-20T10:45:19;10.65;;;4.30;;
9062;SDS011;4567;42.118;24.746;2022-11-20T10:48:00;7.78;;;4.57;;
9062;SDS011;4567;42.118;24.746;2022-11-20T10:50:37;13.55;;;4.68;;
9062;SDS011;4567;42.118;24.746;2022-11-20T10:53:13;10.13;;;4.85;;
9062;SDS011;4567;42.118;24.746;2022-11-20T10:55:50;10.48;;;4.80;;
9062;SDS011;4567;42.118;24.746;2022-11-20T10:58:22;12.85;;;5.05;;
9062;SDS011;4567;42.118;24.746;2022-11-20T11:01:02;16.52;;;5.35;;
9062;SDS011;4567;42.118;24.746;2022-11-20T11:03:30;18.65;;;6.60;;
9062;SDS011;4567;42.118;24.746;2022-11-20T11:06:01;13.95;;;5.65;;
9062;SDS011;4567;42.118;24.746;2022-11-20T11:08:35;17.05;;;6.20;;
9062;SDS011;4567;42.118;24.746;2022-11-20T11:11:07;11.07;;;6.00;;
9062;SDS011;4567;42.118;24.746;2022-11-20T11:13:44;13.98;;;6.45;;
9062;SDS011;4567;42.118;24.746;2022-11-20T11:16:16;18.15;;;6.55;;
9062;SDS011;4567;42.118;24.746;2022-11-20T11:18:46;18.52;;;6.75;;
9062;SDS011;4567;42.118;24.746;2022-11-20T11:21:19;18.27;;;6.93;;
9062;SDS011;4567;42.118;24.746;2022-11-20T11:23:56;19.42;;;8.20;;
9062;SDS011;4567;42.118;24.746;2022-11-20T11:26:25;23.67;;;10.40;;
9062;SDS011;4567;42.118;24.746;2022-11-20T11:28:53;21.30;;;9.75;;
9062;SDS011;4567;42.118;24.746;2022-11-20T11:31:24;27.10;;;9.60;;
9062;SDS011;4567;42.118;24.746;2022-11-20T11:33:52;17.45;;;7.32;;
9062;SDS011;4567;42.118;24.746;2022-11-20T11:36:30;20.05;;;7.00;;
9062;SDS011;4567;42.118;24.746;2022-11-20T11:38:59;18.13;;;6.78;;
9062;SDS011;4567;42.118;24.746;2022-11-20T11:41:28;14.77;;;5.82;;
9062;SDS011;4567;42.118;24.746;2022-11-20T11:44:00;19.25;;;6.80;;
9062;SDS011;4567;42.118;24.746;2022-11-20T11:46:49;16.48;;;6.80;;
9062;SDS011;4567;42.118;24.746;2022-11-20T11:49:19;18.42;;;6.80;;
9062;SDS011;4567;42.118;24.746;2022-11-20T11:51:50;16.52;;;6.90;;
9062;SDS011;4567;42.118;24.746;2022-11-20T11:54:26;17.05;;;6.45;;
9062;SDS011;4567;42.118;24.746;2022-11-20T11:56:59;20.02;;;7.80;;
9062;SDS011;4567;42.118;24.746;2022-11-20T11:59:32;18.77;;;7.35;;
9062;SDS011;4567;42.118;24.746;2022-11-20T12:02:12;21.52;;;7.18;;
9062;SDS011;4567;42.118;24.746;2022-11-20T12:04:46;16.63;;;6.30;;
9062;SDS011;4567;42.118;24.746;2022-11-20T12:07:22;15.70;;;6.35;;
9062;SDS011;4567;42.118;24.746;2022-11-20T12:10:01;16.33;;;6.35;;
9062;SDS011;4567;42.118;24.746;2022-11-20T12:12:30;22.52;;;6.88;;
9062;SDS011;4567;42.118;24.746;2022-11-20T12:15:02;18.95;;;6.60;;
9062;SDS011;4567;42.118;24.746;2022-11-20T12:17:35;18.65;;;7.20;;
9062;SDS011;4567;42.118;24.746;2022-11-20T12:20:02;13.93;;;6.80;;
9062;SDS011;4567;42.118;24.746;2022-11-20T12:22:34;19.20;;;6.65;;
9062;SDS011;4567;42.118;24.746;2022-11-20T12:25:11;23.90;;;8.32;;
9062;SDS011;4567;42.118;24.746;2022-11-20T12:27:44;24.27;;;7.72;;
9062;SDS011;4567;42.118;24.746;2022-11-20T12:30:22;20.05;;;6.70;;
9062;SDS011;4567;42.118;24.746;2022-11-20T12:33:03;25.60;;;7.55;;
9062;SDS011;4567;42.118;24.746;2022-11-20T12:35:48;30.23;;;9.02;;
9062;SDS011;4567;42.118;24.746;2022-11-20T12:44:52;12.75;;;5.13;;
9062;SDS011;4567;42.118;24.746;2022-11-20T12:47:38;15.57;;;5.25;;
9062;SDS011;4567;42.118;24.746;2022-11-20T12:50:17;17.05;;;5.45;;
9062;SDS011;4567;42.118;24.746;2022-11-20T12:52:55;15.23;;;5.30;;
9062;SDS011;4567;42.118;24.746;2022-11-20T12:55:28;18.38;;;5.63;;
9062;SDS011;4567;42.118;24.746;2022-11-20T12:58:01;15.02;;;6.13;;
9062;SDS011;4567;42.118;24.746;2022-11-20T13:00:37;18.77;;;5.60;;
9062;SDS011;4567;42.118;24.746;2022-11-20T13:06:10;16.73;;;4.30;;
9062;SDS011;4567;42.118;24.746;2022-11-20T13:08:42;19.58;;;4.80;;
9062;SDS011;4567;42.118;24.746;2022-11-20T13:11:14;13.85;;;4.30;;
9062;SDS011;4567;42.118;24.746;2022-11-20T13:13:52;18.50;;;3.50;;
9062;SDS011;4567;42.118;24.746;2022-11-20T13:16:38;13.60;;;3.78;;
9062;SDS011;4567;42.118;24.746;2022-11-20T13:19:15;12.52;;;3.50;;
9062;SDS011;4567;42.118;24.746;2022-11-20T13:21:43;21.20;;;3.80;;
9062;SDS011;4567;42.118;24.746;2022-11-20T13:24:20;13.60;;;4.35;;
9062;SDS011;4567;42.118;24.746;2022-11-20T13:27:00;15.98;;;3.72;;
9062;SDS011;4567;42.118;24.746;2022-11-20T13:29:32;16.67;;;3.67;;
9062;SDS011;4567;42.118;24.746;2022-11-20T13:32:03;16.23;;;3.55;;
9062;SDS011;4567;42.118;24.746;2022-11-20T13:34:32;12.07;;;3.35;;
9062;SDS011;4567;42.118;24.746;2022-11-20T13:36:59;14.48;;;3.70;;
9062;SDS011;4567;42.118;24.746;2022-11-20T13:39:29;15.63;;;3.97;;
9062;SDS011;4567;42.118;24.746;2022-11-20T13:41:57;15.80;;;3.72;;
9062;SDS011;4567;42.118;24.746;2022-11-20T13:44:27;17.83;;;4.00;;
9062;SDS011;4567;42.118;24.746;2022-11-20T13:46:59;21.05;;;4.50;;
9062;SDS011;4567;42.118;24.746;2022-11-20T13:49:26;21.90;;;4.65;;
9062;SDS011;4567;42.118;24.746;2022-11-20T13:51:59;18.23;;;4.35;;
9062;SDS011;4567;42.118;24.746;2022-11-20T13:54:55;14.75;;;4.32;;
9062;SDS011;4567;42.118;24.746;2022-11-20T13:57:34;16.50;;;6.28;;
9062;SDS011;4567;42.118;24.746;2022-11-20T14:00:12;16.85;;;3.80;;
9062;SDS011;4567;42.118;24.746;2022-11-20T14:02:41;14.70;;;3.13;;
9062;SDS011;4567;42.118;24.746;2022-11-20T14:05:13;15.25;;;2.72;;
9062;SDS011;4567;42.118;24.746;2022-11-20T14:07:46;16.63;;;2.58;;
9062;SDS011;4567;42.118;24.746;2022-11-20T14:10:19;13.45;;;2.22;;
9062;SDS011;4567;42.118;24.746;2022-11-20T14:12:47;6.88;;;2.20;;
9062;SDS011;4567;42.118;24.746;2022-11-20T14:15:25;8.15;;;1.90;;
9062;SDS011;4567;42.118;24.746;2022-11-20T14:17:54;8.32;;;1.55;;
9062;SDS011;4567;42.118;24.746;2022-11-20T14:20:20;3.20;;;1.50;;
9062;SDS011;4567;42.118;24.746;2022-11-20T14:22:51;5.15;;;1.58;;
9062;SDS011;4567;42.118;24.746;2022-11-20T14:25:18;4.72;;;1.40;;
9062;SDS011;4567;42.118;24.746;2022-11-20T14:27:50;3.42;;;1.55;;
9062;SDS011;4567;42.118;24.746;2022-11-20T14:30:19;4.50;;;1.92;;
9062;SDS011;4567;42.118;24.746;2022-11-20T14:32:48;3.73;;;1.80;;
9062;SDS011;4567;42.118;24.746;2022-11-20T14:35:18;6.30;;;2.20;;
9062;SDS011;4567;42.118;24.746;2022-11-20T14:37:49;2.75;;;1.92;;
9062;SDS011;4567;42.118;24.746;2022-11-20T14:40:23;3.63;;;1.80;;
9062;SDS011;4567;42.118;24.746;2022-11-20T14:42:53;5.27;;;2.00;;
9062;SDS011;4567;42.118;24.746;2022-11-20T14:45:20;4.97;;;1.80;;
9062;SDS011;4567;42.118;24.746;2022-11-20T14:47:49;8.10;;;2.03;;
9062;SDS011;4567;42.118;24.746;2022-11-20T14:50:19;3.77;;;1.70;;
9062;SDS011;4567;42.118;24.746;2022-11-20T14:52:51;3.20;;;1.17;;
9062;SDS011;4567;42.118;24.746;2022-11-20T14:55:29;3.53;;;0.90;;
9062;SDS011;4567;42.118;24.746;2022-11-20T14:57:58;2.53;;;0.80;;
9062;SDS011;4567;42.118;24.746;2022-11-20T15:00:27;5.43;;;1.30;;
9062;SDS011;4567;42.118;24.746;2022-11-20T15:02:56;3.93;;;1.10;;
9062;SDS011;4567;42.118;24.746;2022-11-20T15:05:24;11.37;;;1.77;;
9062;SDS011;4567;42.118;24.746;2022-11-20T15:08:03;3.13;;;1.90;;